sensor_id;sensor_type;location;lat;lon;timestamp;P1;durP1;ratioP1;P2;durP2;ratioP2
18383;SDS011;9318;48.644;9.456;2023-05-15T00:01:16;0.90;;;0.90;;
18383;SDS011;9318;48.644;9.456;2023-05-15T00:03:43;0.90;;;0.90;;
18383;SDS011;9318;48.644;9.456;2023-05-15T00:06:10;0.83;;;0.83;;
18383;SDS011;9318;48.644;9.456;2023-05-15T00:08:37;0.87;;;0.87;;
18383;SDS011;9318;48.644;9.456;2023-05-15T00:11:05;0.80;;;0.80;;
18383;SDS011;9318;48.644;9.456;2023-05-15T00:13:31;0.90;;;0.90;;
18383;SDS011;9318;48.644;9.456;2023-05-15T00:15:58;0.80;;;0.80;;
18383;SDS011;9318;48.644;9.456;2023-05-15T00:18:25;0.90;;;0.90;;
18383;SDS011;9318;48.644;9.456;2023-05-15T00:20:52;0.80;;;0.80;;
18383;SDS011;9318;48.644;9.456;2023-05-15T00:23:18;0.83;;;0.83;;
18383;SDS011;9318;48.644;9.456;2023-05-15T00:25:45;0.80;;;0.80;;
18383;SDS011;9318;48.644;9.456;2023-05-15T00:28:13;0.90;;;0.90;;
18383;SDS011;9318;48.644;9.456;2023-05-15T00:30:40;0.90;;;0.90;;
18383;SDS011;9318;48.644;9.456;2023-05-15T00:33:07;0.90;;;0.90;;
18383;SDS011;9318;48.644;9.456;2023-05-15T00:35:34;0.90;;;0.90;;
18383;SDS011;9318;48.644;9.456;2023-05-15T00:38:00;0.90;;;0.90;;
18383;SDS011;9318;48.644;9.456;2023-05-15T00:40:27;0.80;;;0.80;;
18383;SDS011;9318;48.644;9.456;2023-05-15T00:42:55;0.83;;;0.83;;
18383;SDS011;9318;48.644;9.456;2023-05-15T00:45:24;0.80;;;0.80;;
18383;SDS011;9318;48.644;9.456;2023-05-15T00:47:52;0.90;;;0.90;;
18383;SDS011;9318;48.644;9.456;2023-05-15T00:50:21;0.90;;;0.90;;
18383;SDS011;9318;48.644;9.456;2023-05-15T00:52:48;0.90;;;0.90;;
18383;SDS011;9318;48.644;9.456;2023-05-15T00:55:16;0.90;;;0.90;;
18383;SDS011;9318;48.644;9.456;2023-05-15T00:57:43;1.00;;;1.00;;
18383;SDS011;9318;48.644;9.456;2023-05-15T01:00:11;0.70;;;0.70;;
18383;SDS011;9318;48.644;9.456;2023-05-15T01:02:42;0.80;;;0.80;;
18383;SDS011;9318;48.644;9.456;2023-05-15T01:05:10;0.90;;;0.90;;
18383;SDS011;9318;48.644;9.456;2023-05-15T01:07:39;0.83;;;0.83;;
18383;SDS011;9318;48.644;9.456;2023-05-15T01:10:12;0.80;;;0.80;;
18383;SDS011;9318;48.644;9.456;2023-05-15T01:12:40;0.80;;;0.80;;
18383;SDS011;9318;48.644;9.456;2023-05-15T01:15:09;1.00;;;1.00;;
18383;SDS011;9318;48.644;9.456;2023-05-15T01:17:36;0.80;;;0.80;;
18383;SDS011;9318;48.644;9.456;2023-05-15T01:20:05;0.90;;;0.90;;
18383;SDS011;9318;48.644;9.456;2023-05-15T01:28:19;0.90;;;0.90;;
18383;SDS011;9318;48.644;9.456;2023-05-15T01:30:49;0.80;;;0.80;;
18383;SDS011;9318;48.644;9.456;2023-05-15T01:33:19;0.90;;;0.90;;
18383;SDS011;9318;48.644;9.456;2023-05-15T01:35:52;1.00;;;1.00;;
18383;SDS011;9318;48.644;9.456;2023-05-15T01:38:33;0.90;;;0.90;;
18383;SDS011;9318;48.644;9.456;2023-05-15T01:41:05;1.00;;;1.00;;
18383;SDS011;9318;48.644;9.456;2023-05-15T01:43:38;1.00;;;1.00;;
18383;SDS011;9318;48.644;9.456;2023-05-15T01:46:07;0.90;;;0.90;;
18383;SDS011;9318;48.644;9.456;2023-05-15T01:48:34;0.80;;;0.80;;
18383;SDS011;9318;48.644;9.456;2023-05-15T01:51:03;0.80;;;0.80;;
18383;SDS011;9318;48.644;9.456;2023-05-15T01:53:32;0.80;;;0.80;;
18383;SDS011;9318;48.644;9.456;2023-05-15T01:56:01;0.90;;;0.90;;
18383;SDS011;9318;48.644;9.456;2023-05-15T01:58:31;0.90;;;0.90;;
18383;SDS011;9318;48.644;9.456;2023-05-15T02:00:59;1.00;;;1.00;;
18383;SDS011;9318;48.644;9.456;2023-05-15T02:03:27;0.90;;;0.90;;
18383;SDS011;9318;48.644;9.456;2023-05-15T02:05:57;0.80;;;0.80;;
18383;SDS011;9318;48.644;9.456;2023-05-15T02:08:24;0.90;;;0.90;;
18383;SDS011;9318;48.644;9.456;2023-05-15T02:10:52;0.80;;;0.80;;
18383;SDS011;9318;48.644;9.456;2023-05-15T02:13:20;0.90;;;0.90;;
18383;SDS011;9318;48.644;9.456;2023-05-15T02:15:48;0.90;;;0.90;;
18383;SDS011;9318;48.644;9.456;2023-05-15T02:18:16;0.90;;;0.90;;
18383;SDS011;9318;48.644;9.456;2023-05-15T02:20:43;0.80;;;0.80;;
18383;SDS011;9318;48.644;9.456;2023-05-15T02:23:10;0.90;;;0.90;;
18383;SDS011;9318;48.644;9.456;2023-05-15T02:25:37;0.80;;;0.80;;
18383;SDS011;9318;48.644;9.456;2023-05-15T02:28:12;0.83;;;0.83;;
18383;SDS011;9318;48.644;9.456;2023-05-15T02:30:57;0.90;;;0.90;;
18383;SDS011;9318;48.644;9.456;2023-05-15T02:33:33;0.80;;;0.80;;
18383;SDS011;9318;48.644;9.456;2023-05-15T02:36:04;0.80;;;0.80;;
18383;SDS011;9318;48.644;9.456;2023-05-15T02:38:35;0.80;;;0.80;;
18383;SDS011;9318;48.644;9.456;2023-05-15T02:41:05;0.90;;;0.90;;
18383;SDS011;9318;48.644;9.456;2023-05-15T02:43:34;0.70;;;0.70;;
18383;SDS011;9318;48.644;9.456;2023-05-15T02:46:01;0.73;;;0.73;;
18383;SDS011;9318;48.644;9.456;2023-05-15T02:48:32;0.83;;;0.83;;
18383;SDS011;9318;48.644;9.456;2023-05-15T02:51:00;0.80;;;0.80;;
18383;SDS011;9318;48.644;9.456;2023-05-15T02:53:27;0.70;;;0.70;;
18383;SDS011;9318;48.644;9.456;2023-05-15T02:55:54;0.80;;;0.80;;
18383;SDS011;9318;48.644;9.456;2023-05-15T02:58:21;0.90;;;0.90;;
18383;SDS011;9318;48.644;9.456;2023-05-15T03:00:48;0.90;;;0.90;;
18383;SDS011;9318;48.644;9.456;2023-05-15T03:03:14;0.80;;;0.80;;
18383;SDS011;9318;48.644;9.456;2023-05-15T03:05:42;0.80;;;0.80;;
18383;SDS011;9318;48.644;9.456;2023-05-15T03:08:09;0.90;;;0.90;;
18383;SDS011;9318;48.644;9.456;2023-05-15T03:10:36;0.80;;;0.80;;
18383;SDS011;9318;48.644;9.456;2023-05-15T03:13:03;0.80;;;0.80;;
18383;SDS011;9318;48.644;9.456;2023-05-15T03:15:30;0.90;;;0.90;;
18383;SDS011;9318;48.644;9.456;2023-05-15T03:17:57;0.90;;;0.90;;
18383;SDS011;9318;48.644;9.456;2023-05-15T03:20:24;1.00;;;1.00;;
18383;SDS011;9318;48.644;9.456;2023-05-15T03:22:52;0.90;;;0.90;;
18383;SDS011;9318;48.644;9.456;2023-05-15T03:25:19;0.90;;;0.90;;
18383;SDS011;9318;48.644;9.456;2023-05-15T03:27:46;0.80;;;0.80;;
18383;SDS011;9318;48.644;9.456;2023-05-15T03:30:12;0.80;;;0.80;;
18383;SDS011;9318;48.644;9.456;2023-05-15T03:32:39;0.80;;;0.80;;
18383;SDS011;9318;48.644;9.456;2023-05-15T03:35:06;0.80;;;0.80;;
18383;SDS011;9318;48.644;9.456;2023-05-15T03:37:34;0.87;;;0.87;;
18383;SDS011;9318;48.644;9.456;2023-05-15T03:40:02;0.70;;;0.70;;
18383;SDS011;9318;48.644;9.456;2023-05-15T03:42:31;0.90;;;0.90;;
18383;SDS011;9318;48.644;9.456;2023-05-15T03:44:58;0.90;;;0.90;;
18383;SDS011;9318;48.644;9.456;2023-05-15T03:47:25;0.77;;;0.77;;
18383;SDS011;9318;48.644;9.456;2023-05-15T03:49:51;0.87;;;0.87;;
18383;SDS011;9318;48.644;9.456;2023-05-15T03:52:18;0.70;;;0.70;;
18383;SDS011;9318;48.644;9.456;2023-05-15T03:54:45;0.90;;;0.90;;
18383;SDS011;9318;48.644;9.456;2023-05-15T03:57:13;0.70;;;0.70;;
18383;SDS011;9318;48.644;9.456;2023-05-15T03:59:40;1.00;;;1.00;;
18383;SDS011;9318;48.644;9.456;2023-05-15T04:02:06;0.70;;;0.70;;
18383;SDS011;9318;48.644;9.456;2023-05-15T04:04:33;0.90;;;0.90;;
18383;SDS011;9318;48.644;9.456;2023-05-15T04:07:00;0.90;;;0.90;;
18383;SDS011;9318;48.644;9.456;2023-05-15T04:09:27;0.90;;;0.90;;
18383;SDS011;9318;48.644;9.456;2023-05-15T04:11:54;0.80;;;0.80;;
18383;SDS011;9318;48.644;9.456;2023-05-15T04:14:22;0.80;;;0.80;;
18383;SDS011;9318;48.644;9.456;2023-05-15T04:16:49;0.90;;;0.90;;
18383;SDS011;9318;48.644;9.456;2023-05-15T04:19:15;0.90;;;0.90;;
18383;SDS011;9318;48.644;9.456;2023-05-15T04:21:42;0.90;;;0.90;;
18383;SDS011;9318;48.644;9.456;2023-05-15T04:24:09;0.90;;;0.90;;
18383;SDS011;9318;48.644;9.456;2023-05-15T04:26:35;0.87;;;0.87;;
18383;SDS011;9318;48.644;9.456;2023-05-15T04:29:02;0.80;;;0.80;;
18383;SDS011;9318;48.644;9.456;2023-05-15T04:31:31;0.80;;;0.80;;
18383;SDS011;9318;48.644;9.456;2023-05-15T04:33:59;0.80;;;0.80;;
18383;SDS011;9318;48.644;9.456;2023-05-15T04:36:27;0.90;;;0.90;;
18383;SDS011;9318;48.644;9.456;2023-05-15T04:38:54;0.90;;;0.90;;
18383;SDS011;9318;48.644;9.456;2023-05-15T04:41:21;0.90;;;0.90;;
18383;SDS011;9318;48.644;9.456;2023-05-15T04:43:48;0.90;;;0.90;;
18383;SDS011;9318;48.644;9.456;2023-05-15T04:46:15;0.80;;;0.80;;
18383;SDS011;9318;48.644;9.456;2023-05-15T04:48:43;0.80;;;0.80;;
18383;SDS011;9318;48.644;9.456;2023-05-15T04:51:10;0.90;;;0.90;;
18383;SDS011;9318;48.644;9.456;2023-05-15T04:53:37;0.83;;;0.83;;
18383;SDS011;9318;48.644;9.456;2023-05-15T04:56:04;0.90;;;0.90;;
18383;SDS011;9318;48.644;9.456;2023-05-15T04:58:30;0.87;;;0.87;;
18383;SDS011;9318;48.644;9.456;2023-05-15T05:00:57;0.90;;;0.90;;
18383;SDS011;9318;48.644;9.456;2023-05-15T05:03:24;0.90;;;0.90;;
18383;SDS011;9318;48.644;9.456;2023-05-15T05:05:52;0.90;;;0.90;;
18383;SDS011;9318;48.644;9.456;2023-05-15T05:08:19;0.80;;;0.80;;
18383;SDS011;9318;48.644;9.456;2023-05-15T05:10:46;0.70;;;0.70;;
18383;SDS011;9318;48.644;9.456;2023-05-15T05:13:12;0.90;;;0.90;;
18383;SDS011;9318;48.644;9.456;2023-05-15T05:15:39;0.90;;;0.90;;
18383;SDS011;9318;48.644;9.456;2023-05-15T05:18:06;0.80;;;0.80;;
18383;SDS011;9318;48.644;9.456;2023-05-15T05:20:33;0.90;;;0.90;;
18383;SDS011;9318;48.644;9.456;2023-05-15T05:23:01;0.90;;;0.90;;
18383;SDS011;9318;48.644;9.456;2023-05-15T05:25:28;0.90;;;0.90;;
18383;SDS011;9318;48.644;9.456;2023-05-15T05:27:55;0.80;;;0.80;;
18383;SDS011;9318;48.644;9.456;2023-05-15T05:30:22;0.80;;;0.80;;
18383;SDS011;9318;48.644;9.456;2023-05-15T05:32:48;0.80;;;0.80;;
18383;SDS011;9318;48.644;9.456;2023-05-15T05:35:15;0.80;;;0.80;;
18383;SDS011;9318;48.644;9.456;2023-05-15T05:37:42;0.80;;;0.80;;
18383;SDS011;9318;48.644;9.456;2023-05-15T05:40:10;0.80;;;0.80;;
18383;SDS011;9318;48.644;9.456;2023-05-15T05:42:38;0.60;;;0.60;;
18383;SDS011;9318;48.644;9.456;2023-05-15T05:45:05;0.80;;;0.80;;
18383;SDS011;9318;48.644;9.456;2023-05-15T05:47:32;0.90;;;0.90;;
18383;SDS011;9318;48.644;9.456;2023-05-15T05:49:59;0.70;;;0.70;;
18383;SDS011;9318;48.644;9.456;2023-05-15T05:52:26;0.70;;;0.70;;
18383;SDS011;9318;48.644;9.456;2023-05-15T05:54:53;0.83;;;0.83;;
18383;SDS011;9318;48.644;9.456;2023-05-15T05:57:21;0.80;;;0.80;;
18383;SDS011;9318;48.644;9.456;2023-05-15T05:59:48;0.77;;;0.77;;
18383;SDS011;9318;48.644;9.456;2023-05-15T06:02:15;0.80;;;0.80;;
18383;SDS011;9318;48.644;9.456;2023-05-15T06:04:41;0.77;;;0.77;;
18383;SDS011;9318;48.644;9.456;2023-05-15T06:07:08;0.70;;;0.70;;
18383;SDS011;9318;48.644;9.456;2023-05-15T06:09:35;0.70;;;0.70;;
18383;SDS011;9318;48.644;9.456;2023-05-15T06:12:02;0.70;;;0.70;;
18383;SDS011;9318;48.644;9.456;2023-05-15T06:14:30;0.70;;;0.70;;
18383;SDS011;9318;48.644;9.456;2023-05-15T06:16:57;0.80;;;0.80;;
18383;SDS011;9318;48.644;9.456;2023-05-15T06:19:25;0.70;;;0.70;;
18383;SDS011;9318;48.644;9.456;2023-05-15T06:21:52;0.60;;;0.60;;
18383;SDS011;9318;48.644;9.456;2023-05-15T06:24:18;0.63;;;0.63;;
18383;SDS011;9318;48.644;9.456;2023-05-15T06:26:45;0.60;;;0.60;;
18383;SDS011;9318;48.644;9.456;2023-05-15T06:29:12;0.60;;;0.60;;
18383;SDS011;9318;48.644;9.456;2023-05-15T06:31:40;0.68;;;0.68;;
18383;SDS011;9318;48.644;9.456;2023-05-15T06:34:07;0.60;;;0.60;;
18383;SDS011;9318;48.644;9.456;2023-05-15T06:36:33;0.60;;;0.60;;
18383;SDS011;9318;48.644;9.456;2023-05-15T06:39:00;0.60;;;0.60;;
18383;SDS011;9318;48.644;9.456;2023-05-15T06:41:27;0.50;;;0.50;;
18383;SDS011;9318;48.644;9.456;2023-05-15T06:43:54;0.40;;;0.40;;
18383;SDS011;9318;48.644;9.456;2023-05-15T06:46:20;0.50;;;0.50;;
18383;SDS011;9318;48.644;9.456;2023-05-15T06:48:48;0.50;;;0.50;;
18383;SDS011;9318;48.644;9.456;2023-05-15T06:51:15;0.60;;;0.60;;
18383;SDS011;9318;48.644;9.456;2023-05-15T06:53:42;0.60;;;0.60;;
18383;SDS011;9318;48.644;9.456;2023-05-15T06:56:09;0.40;;;0.40;;
18383;SDS011;9318;48.644;9.456;2023-05-15T06:58:35;0.40;;;0.40;;
18383;SDS011;9318;48.644;9.456;2023-05-15T07:01:02;0.50;;;0.50;;
18383;SDS011;9318;48.644;9.456;2023-05-15T07:03:30;0.60;;;0.60;;
18383;SDS011;9318;48.644;9.456;2023-05-15T07:05:58;0.50;;;0.50;;
18383;SDS011;9318;48.644;9.456;2023-05-15T07:08:25;0.45;;;0.45;;
18383;SDS011;9318;48.644;9.456;2023-05-15T07:10:52;0.50;;;0.50;;
18383;SDS011;9318;48.644;9.456;2023-05-15T07:13:19;0.50;;;0.50;;
18383;SDS011;9318;48.644;9.456;2023-05-15T07:15:45;0.47;;;0.47;;
18383;SDS011;9318;48.644;9.456;2023-05-15T07:18:12;0.30;;;0.30;;
18383;SDS011;9318;48.644;9.456;2023-05-15T07:20:39;0.38;;;0.38;;
18383;SDS011;9318;48.644;9.456;2023-05-15T07:23:07;0.30;;;0.30;;
18383;SDS011;9318;48.644;9.456;2023-05-15T07:25:34;0.45;;;0.45;;
18383;SDS011;9318;48.644;9.456;2023-05-15T07:28:01;0.50;;;0.50;;
18383;SDS011;9318;48.644;9.456;2023-05-15T07:30:27;0.40;;;0.40;;
18383;SDS011;9318;48.644;9.456;2023-05-15T07:32:54;0.30;;;0.30;;
18383;SDS011;9318;48.644;9.456;2023-05-15T07:35:21;0.50;;;0.50;;
18383;SDS011;9318;48.644;9.456;2023-05-15T07:37:48;0.40;;;0.40;;
18383;SDS011;9318;48.644;9.456;2023-05-15T07:40:16;0.40;;;0.40;;
18383;SDS011;9318;48.644;9.456;2023-05-15T07:42:42;0.47;;;0.47;;
18383;SDS011;9318;48.644;9.456;2023-05-15T07:45:09;0.30;;;0.30;;
18383;SDS011;9318;48.644;9.456;2023-05-15T07:47:36;0.30;;;0.30;;
18383;SDS011;9318;48.644;9.456;2023-05-15T07:50:03;0.40;;;0.40;;
18383;SDS011;9318;48.644;9.456;2023-05-15T07:52:31;0.40;;;0.40;;
18383;SDS011;9318;48.644;9.456;2023-05-15T07:54:57;0.40;;;0.40;;
18383;SDS011;9318;48.644;9.456;2023-05-15T07:57:26;0.40;;;0.40;;
18383;SDS011;9318;48.644;9.456;2023-05-15T07:59:53;0.30;;;0.30;;
18383;SDS011;9318;48.644;9.456;2023-05-15T08:02:20;0.40;;;0.40;;
18383;SDS011;9318;48.644;9.456;2023-05-15T08:04:46;0.40;;;0.40;;
18383;SDS011;9318;48.644;9.456;2023-05-15T08:07:13;0.47;;;0.47;;
18383;SDS011;9318;48.644;9.456;2023-05-15T08:09:40;0.47;;;0.47;;
18383;SDS011;9318;48.644;9.456;2023-05-15T08:12:13;0.30;;;0.30;;
18383;SDS011;9318;48.644;9.456;2023-05-15T08:14:42;0.40;;;0.40;;
18383;SDS011;9318;48.644;9.456;2023-05-15T08:17:09;0.35;;;0.35;;
18383;SDS011;9318;48.644;9.456;2023-05-15T08:19:36;0.40;;;0.40;;
18383;SDS011;9318;48.644;9.456;2023-05-15T08:22:03;0.40;;;0.40;;
18383;SDS011;9318;48.644;9.456;2023-05-15T08:24:30;0.30;;;0.30;;
18383;SDS011;9318;48.644;9.456;2023-05-15T08:26:56;0.40;;;0.40;;
18383;SDS011;9318;48.644;9.456;2023-05-15T08:29:23;0.30;;;0.30;;
18383;SDS011;9318;48.644;9.456;2023-05-15T08:31:51;0.30;;;0.30;;
18383;SDS011;9318;48.644;9.456;2023-05-15T08:34:18;0.40;;;0.40;;
18383;SDS011;9318;48.644;9.456;2023-05-15T08:36:44;0.40;;;0.40;;
18383;SDS011;9318;48.644;9.456;2023-05-15T08:39:11;0.40;;;0.40;;
18383;SDS011;9318;48.644;9.456;2023-05-15T08:41:39;0.30;;;0.30;;
18383;SDS011;9318;48.644;9.456;2023-05-15T08:44:12;0.30;;;0.30;;
18383;SDS011;9318;48.644;9.456;2023-05-15T08:46:39;0.40;;;0.40;;
18383;SDS011;9318;48.644;9.456;2023-05-15T08:49:10;0.20;;;0.20;;
18383;SDS011;9318;48.644;9.456;2023-05-15T08:51:40;0.30;;;0.30;;
18383;SDS011;9318;48.644;9.456;2023-05-15T08:54:07;0.30;;;0.30;;
18383;SDS011;9318;48.644;9.456;2023-05-15T08:56:35;0.30;;;0.30;;
18383;SDS011;9318;48.644;9.456;2023-05-15T08:59:03;0.40;;;0.40;;
18383;SDS011;9318;48.644;9.456;2023-05-15T09:01:30;0.30;;;0.30;;
18383;SDS011;9318;48.644;9.456;2023-05-15T09:03:57;0.30;;;0.30;;
18383;SDS011;9318;48.644;9.456;2023-05-15T09:06:25;0.30;;;0.30;;
18383;SDS011;9318;48.644;9.456;2023-05-15T09:08:54;0.30;;;0.30;;
18383;SDS011;9318;48.644;9.456;2023-05-15T09:11:21;0.40;;;0.40;;
18383;SDS011;9318;48.644;9.456;2023-05-15T09:13:49;0.40;;;0.40;;
18383;SDS011;9318;48.644;9.456;2023-05-15T09:16:16;0.40;;;0.40;;
18383;SDS011;9318;48.644;9.456;2023-05-15T09:18:45;0.43;;;0.43;;
18383;SDS011;9318;48.644;9.456;2023-05-15T09:21:22;0.40;;;0.40;;
18383;SDS011;9318;48.644;9.456;2023-05-15T09:23:51;0.20;;;0.20;;
18383;SDS011;9318;48.644;9.456;2023-05-15T09:26:18;0.30;;;0.30;;
18383;SDS011;9318;48.644;9.456;2023-05-15T09:28:45;0.40;;;0.40;;
18383;SDS011;9318;48.644;9.456;2023-05-15T09:31:12;0.50;;;0.50;;
18383;SDS011;9318;48.644;9.456;2023-05-15T09:33:39;0.32;;;0.32;;
18383;SDS011;9318;48.644;9.456;2023-05-15T09:36:07;0.40;;;0.40;;
18383;SDS011;9318;48.644;9.456;2023-05-15T09:38:34;0.40;;;0.40;;
18383;SDS011;9318;48.644;9.456;2023-05-15T09:41:07;0.40;;;0.40;;
18383;SDS011;9318;48.644;9.456;2023-05-15T09:43:35;0.30;;;0.30;;
18383;SDS011;9318;48.644;9.456;2023-05-15T09:46:03;0.40;;;0.40;;
18383;SDS011;9318;48.644;9.456;2023-05-15T09:48:30;0.50;;;0.50;;
18383;SDS011;9318;48.644;9.456;2023-05-15T09:50:57;0.35;;;0.35;;
18383;SDS011;9318;48.644;9.456;2023-05-15T09:53:25;0.47;;;0.47;;
18383;SDS011;9318;48.644;9.456;2023-05-15T09:55:54;0.30;;;0.30;;
18383;SDS011;9318;48.644;9.456;2023-05-15T09:58:22;0.40;;;0.40;;
18383;SDS011;9318;48.644;9.456;2023-05-15T10:00:49;0.30;;;0.30;;
18383;SDS011;9318;48.644;9.456;2023-05-15T10:03:16;0.40;;;0.40;;
18383;SDS011;9318;48.644;9.456;2023-05-15T10:05:44;0.43;;;0.43;;
18383;SDS011;9318;48.644;9.456;2023-05-15T10:08:11;0.47;;;0.47;;
18383;SDS011;9318;48.644;9.456;2023-05-15T10:10:39;0.40;;;0.40;;
18383;SDS011;9318;48.644;9.456;2023-05-15T10:13:06;0.40;;;0.40;;
18383;SDS011;9318;48.644;9.456;2023-05-15T10:15:35;0.40;;;0.40;;
18383;SDS011;9318;48.644;9.456;2023-05-15T10:18:03;0.40;;;0.40;;
18383;SDS011;9318;48.644;9.456;2023-05-15T10:20:31;0.40;;;0.40;;
18383;SDS011;9318;48.644;9.456;2023-05-15T10:23:00;0.43;;;0.43;;
18383;SDS011;9318;48.644;9.456;2023-05-15T10:25:31;0.50;;;0.50;;
18383;SDS011;9318;48.644;9.456;2023-05-15T10:28:01;0.40;;;0.40;;
18383;SDS011;9318;48.644;9.456;2023-05-15T10:30:28;0.43;;;0.43;;
18383;SDS011;9318;48.644;9.456;2023-05-15T10:32:58;0.50;;;0.50;;
18383;SDS011;9318;48.644;9.456;2023-05-15T10:35:26;0.40;;;0.40;;
18383;SDS011;9318;48.644;9.456;2023-05-15T10:37:54;0.40;;;0.40;;
18383;SDS011;9318;48.644;9.456;2023-05-15T10:40:22;0.50;;;0.50;;
18383;SDS011;9318;48.644;9.456;2023-05-15T10:42:49;0.30;;;0.30;;
18383;SDS011;9318;48.644;9.456;2023-05-15T10:45:16;0.50;;;0.50;;
18383;SDS011;9318;48.644;9.456;2023-05-15T10:47:43;0.40;;;0.40;;
18383;SDS011;9318;48.644;9.456;2023-05-15T10:50:12;0.45;;;0.45;;
18383;SDS011;9318;48.644;9.456;2023-05-15T10:52:39;0.40;;;0.40;;
18383;SDS011;9318;48.644;9.456;2023-05-15T10:55:07;0.50;;;0.50;;
18383;SDS011;9318;48.644;9.456;2023-05-15T10:57:35;0.40;;;0.40;;
18383;SDS011;9318;48.644;9.456;2023-05-15T11:00:02;0.50;;;0.50;;
18383;SDS011;9318;48.644;9.456;2023-05-15T11:02:49;0.43;;;0.43;;
18383;SDS011;9318;48.644;9.456;2023-05-15T11:05:19;0.40;;;0.40;;
18383;SDS011;9318;48.644;9.456;2023-05-15T11:07:51;0.40;;;0.40;;
18383;SDS011;9318;48.644;9.456;2023-05-15T11:10:51;0.50;;;0.50;;
18383;SDS011;9318;48.644;9.456;2023-05-15T11:13:18;0.50;;;0.50;;
18383;SDS011;9318;48.644;9.456;2023-05-15T11:15:45;0.40;;;0.40;;
18383;SDS011;9318;48.644;9.456;2023-05-15T11:18:13;0.50;;;0.50;;
18383;SDS011;9318;48.644;9.456;2023-05-15T11:20:41;0.40;;;0.40;;
18383;SDS011;9318;48.644;9.456;2023-05-15T11:23:36;0.50;;;0.50;;
18383;SDS011;9318;48.644;9.456;2023-05-15T11:26:05;0.40;;;0.40;;
18383;SDS011;9318;48.644;9.456;2023-05-15T11:28:34;0.50;;;0.50;;
18383;SDS011;9318;48.644;9.456;2023-05-15T11:31:07;0.47;;;0.47;;
18383;SDS011;9318;48.644;9.456;2023-05-15T11:33:36;0.40;;;0.40;;
18383;SDS011;9318;48.644;9.456;2023-05-15T11:36:05;0.30;;;0.30;;
18383;SDS011;9318;48.644;9.456;2023-05-15T11:38:35;0.50;;;0.50;;
18383;SDS011;9318;48.644;9.456;2023-05-15T11:41:11;0.40;;;0.40;;
18383;SDS011;9318;48.644;9.456;2023-05-15T11:43:42;0.40;;;0.40;;
18383;SDS011;9318;48.644;9.456;2023-05-15T11:46:10;0.40;;;0.40;;
18383;SDS011;9318;48.644;9.456;2023-05-15T11:48:38;0.50;;;0.50;;
18383;SDS011;9318;48.644;9.456;2023-05-15T11:51:10;0.50;;;0.50;;
18383;SDS011;9318;48.644;9.456;2023-05-15T11:53:41;0.40;;;0.40;;
18383;SDS011;9318;48.644;9.456;2023-05-15T11:56:11;0.50;;;0.50;;
18383;SDS011;9318;48.644;9.456;2023-05-15T11:58:42;0.50;;;0.50;;
18383;SDS011;9318;48.644;9.456;2023-05-15T12:01:09;0.60;;;0.60;;
18383;SDS011;9318;48.644;9.456;2023-05-15T12:03:37;0.63;;;0.63;;
18383;SDS011;9318;48.644;9.456;2023-05-15T12:06:04;0.60;;;0.60;;
18383;SDS011;9318;48.644;9.456;2023-05-15T12:08:32;0.65;;;0.65;;
18383;SDS011;9318;48.644;9.456;2023-05-15T12:11:01;0.60;;;0.60;;
18383;SDS011;9318;48.644;9.456;2023-05-15T12:13:29;0.60;;;0.60;;
18383;SDS011;9318;48.644;9.456;2023-05-15T12:15:57;0.50;;;0.50;;
18383;SDS011;9318;48.644;9.456;2023-05-15T12:18:24;0.50;;;0.50;;
18383;SDS011;9318;48.644;9.456;2023-05-15T12:20:51;0.60;;;0.60;;
18383;SDS011;9318;48.644;9.456;2023-05-15T12:23:20;0.50;;;0.50;;
18383;SDS011;9318;48.644;9.456;2023-05-15T12:25:48;0.40;;;0.40;;
18383;SDS011;9318;48.644;9.456;2023-05-15T12:28:19;0.50;;;0.50;;
18383;SDS011;9318;48.644;9.456;2023-05-15T12:30:46;0.60;;;0.60;;
18383;SDS011;9318;48.644;9.456;2023-05-15T12:33:14;0.50;;;0.50;;
18383;SDS011;9318;48.644;9.456;2023-05-15T12:35:48;0.55;;;0.55;;
18383;SDS011;9318;48.644;9.456;2023-05-15T12:38:18;0.60;;;0.60;;
18383;SDS011;9318;48.644;9.456;2023-05-15T12:40:46;0.60;;;0.60;;
18383;SDS011;9318;48.644;9.456;2023-05-15T12:43:22;0.60;;;0.60;;
18383;SDS011;9318;48.644;9.456;2023-05-15T12:45:50;0.47;;;0.47;;
18383;SDS011;9318;48.644;9.456;2023-05-15T12:48:18;0.70;;;0.70;;
18383;SDS011;9318;48.644;9.456;2023-05-15T12:50:45;0.60;;;0.60;;
18383;SDS011;9318;48.644;9.456;2023-05-15T12:53:13;0.50;;;0.50;;
18383;SDS011;9318;48.644;9.456;2023-05-15T12:55:41;0.50;;;0.50;;
18383;SDS011;9318;48.644;9.456;2023-05-15T12:58:11;0.60;;;0.60;;
18383;SDS011;9318;48.644;9.456;2023-05-15T13:00:40;0.50;;;0.50;;
18383;SDS011;9318;48.644;9.456;2023-05-15T13:03:10;0.50;;;0.50;;
18383;SDS011;9318;48.644;9.456;2023-05-15T13:05:38;0.50;;;0.50;;
18383;SDS011;9318;48.644;9.456;2023-05-15T13:08:08;0.57;;;0.57;;
18383;SDS011;9318;48.644;9.456;2023-05-15T13:10:39;0.52;;;0.52;;
18383;SDS011;9318;48.644;9.456;2023-05-15T13:13:06;0.50;;;0.50;;
18383;SDS011;9318;48.644;9.456;2023-05-15T13:15:35;0.50;;;0.50;;
18383;SDS011;9318;48.644;9.456;2023-05-15T13:18:04;0.50;;;0.50;;
18383;SDS011;9318;48.644;9.456;2023-05-15T13:20:33;0.45;;;0.45;;
18383;SDS011;9318;48.644;9.456;2023-05-15T13:23:01;0.60;;;0.60;;
18383;SDS011;9318;48.644;9.456;2023-05-15T13:25:28;0.50;;;0.50;;
18383;SDS011;9318;48.644;9.456;2023-05-15T13:27:56;0.50;;;0.50;;
18383;SDS011;9318;48.644;9.456;2023-05-15T13:30:23;0.50;;;0.50;;
18383;SDS011;9318;48.644;9.456;2023-05-15T13:32:52;0.40;;;0.40;;
18383;SDS011;9318;48.644;9.456;2023-05-15T13:35:19;0.57;;;0.57;;
18383;SDS011;9318;48.644;9.456;2023-05-15T13:37:46;0.43;;;0.43;;
18383;SDS011;9318;48.644;9.456;2023-05-15T13:40:13;0.50;;;0.50;;
18383;SDS011;9318;48.644;9.456;2023-05-15T13:42:40;0.40;;;0.40;;
18383;SDS011;9318;48.644;9.456;2023-05-15T13:45:09;0.45;;;0.45;;
18383;SDS011;9318;48.644;9.456;2023-05-15T13:47:37;0.50;;;0.50;;
18383;SDS011;9318;48.644;9.456;2023-05-15T13:50:06;0.55;;;0.55;;
18383;SDS011;9318;48.644;9.456;2023-05-15T13:52:34;0.40;;;0.40;;
18383;SDS011;9318;48.644;9.456;2023-05-15T13:55:01;0.43;;;0.43;;
18383;SDS011;9318;48.644;9.456;2023-05-15T13:57:28;0.60;;;0.60;;
18383;SDS011;9318;48.644;9.456;2023-05-15T13:59:55;0.50;;;0.50;;
18383;SDS011;9318;48.644;9.456;2023-05-15T14:02:22;0.50;;;0.50;;
18383;SDS011;9318;48.644;9.456;2023-05-15T14:04:50;0.40;;;0.40;;
18383;SDS011;9318;48.644;9.456;2023-05-15T14:07:20;0.50;;;0.50;;
18383;SDS011;9318;48.644;9.456;2023-05-15T14:09:47;0.40;;;0.40;;
18383;SDS011;9318;48.644;9.456;2023-05-15T14:12:14;0.52;;;0.52;;
18383;SDS011;9318;48.644;9.456;2023-05-15T14:14:41;0.50;;;0.50;;
18383;SDS011;9318;48.644;9.456;2023-05-15T14:17:10;0.50;;;0.50;;
18383;SDS011;9318;48.644;9.456;2023-05-15T14:19:37;0.50;;;0.50;;
18383;SDS011;9318;48.644;9.456;2023-05-15T14:22:04;0.47;;;0.47;;
18383;SDS011;9318;48.644;9.456;2023-05-15T14:24:32;0.55;;;0.55;;
18383;SDS011;9318;48.644;9.456;2023-05-15T14:26:58;0.60;;;0.60;;
18383;SDS011;9318;48.644;9.456;2023-05-15T14:29:25;0.50;;;0.50;;
18383;SDS011;9318;48.644;9.456;2023-05-15T14:31:52;0.50;;;0.50;;
18383;SDS011;9318;48.644;9.456;2023-05-15T14:34:19;0.50;;;0.50;;
18383;SDS011;9318;48.644;9.456;2023-05-15T14:36:47;0.50;;;0.50;;
18383;SDS011;9318;48.644;9.456;2023-05-15T14:39:18;0.50;;;0.50;;
18383;SDS011;9318;48.644;9.456;2023-05-15T14:41:46;0.40;;;0.40;;
18383;SDS011;9318;48.644;9.456;2023-05-15T14:44:13;0.40;;;0.40;;
18383;SDS011;9318;48.644;9.456;2023-05-15T14:46:40;0.60;;;0.60;;
18383;SDS011;9318;48.644;9.456;2023-05-15T14:49:07;0.50;;;0.50;;
18383;SDS011;9318;48.644;9.456;2023-05-15T14:51:34;0.50;;;0.50;;
18383;SDS011;9318;48.644;9.456;2023-05-15T14:54:01;0.50;;;0.50;;
18383;SDS011;9318;48.644;9.456;2023-05-15T14:56:29;0.50;;;0.50;;
18383;SDS011;9318;48.644;9.456;2023-05-15T14:58:57;0.50;;;0.50;;
18383;SDS011;9318;48.644;9.456;2023-05-15T15:01:23;0.60;;;0.60;;
18383;SDS011;9318;48.644;9.456;2023-05-15T15:03:50;0.70;;;0.70;;
18383;SDS011;9318;48.644;9.456;2023-05-15T15:06:18;0.60;;;0.60;;
18383;SDS011;9318;48.644;9.456;2023-05-15T15:08:49;0.60;;;0.60;;
18383;SDS011;9318;48.644;9.456;2023-05-15T15:11:17;0.57;;;0.57;;